createdAt,value
2023-02-08T00:00:50.363Z,0.20
2023-02-08T00:03:18.585Z,0.10
2023-02-08T00:05:45.476Z,0.20
2023-02-08T00:08:12.639Z,0.10
2023-02-08T00:10:39.868Z,0.10
2023-02-08T00:13:07.029Z,0.10
2023-02-08T00:15:33.955Z,0.20
2023-02-08T00:18:01.078Z,0.10
2023-02-08T00:20:28.112Z,0.10
2023-02-08T00:22:55.020Z,0.20
2023-02-08T00:25:21.957Z,0.20
2023-02-08T00:27:48.946Z,0.10
2023-02-08T00:30:16.014Z,0.20
2023-02-08T00:32:42.970Z,0.10
2023-02-08T00:35:09.926Z,0.10
2023-02-08T00:37:36.906Z,0.20
2023-02-08T00:40:05.940Z,0.10
2023-02-08T00:42:33.252Z,0.20
2023-02-08T00:45:00.258Z,0.10
2023-02-08T00:47:27.763Z,0.20
2023-02-08T00:49:54.803Z,0.20
2023-02-08T00:52:21.961Z,0.20
2023-02-08T00:54:49.148Z,0.10
2023-02-08T00:57:16.267Z,0.20
2023-02-08T00:59:43.247Z,0.20
2023-02-08T01:02:10.864Z,0.20
2023-02-08T01:04:38.115Z,0.20
2023-02-08T01:07:06.033Z,0.20
2023-02-08T01:09:34.002Z,0.20
2023-02-08T01:12:01.176Z,0.20
2023-02-08T01:14:28.146Z,0.20
2023-02-08T01:16:55.154Z,0.20
2023-02-08T01:19:22.148Z,0.20
2023-02-08T01:21:51.862Z,0.20
2023-02-08T01:24:18.963Z,0.20
2023-02-08T01:26:45.934Z,0.20
2023-02-08T01:29:13.087Z,0.10
2023-02-08T01:31:42.816Z,0.20
2023-02-08T01:34:10.635Z,0.10
2023-02-08T01:36:38.830Z,0.10
2023-02-08T01:39:07.280Z,0.10
2023-02-08T01:41:37.358Z,0.10
2023-02-08T01:44:09.650Z,0.10
2023-02-08T01:46:48.813Z,0.00
2023-02-08T01:49:24.798Z,0.00
2023-02-08T01:52:01.236Z,-0.10
2023-02-08T01:54:32.224Z,-0.10
2023-02-08T01:56:59.419Z,0.00
2023-02-08T02:00:04.624Z,-0.10
2023-02-08T02:02:31.872Z,-0.10
2023-02-08T02:04:58.827Z,0.00
2023-02-08T02:07:30.256Z,0.00
2023-02-08T02:10:04.230Z,0.00
2023-02-08T02:12:32.987Z,0.00
2023-02-08T02:15:01.104Z,0.00
2023-02-08T02:17:28.254Z,0.00
2023-02-08T02:20:01.009Z,0.00
2023-02-08T02:22:27.904Z,0.00
2023-02-08T02:25:23.495Z,-0.10
2023-02-08T02:28:10.768Z,0.00
2023-02-08T02:31:08.503Z,0.00
2023-02-08T02:34:12.791Z,0.00
2023-02-08T02:36:42.545Z,0.00
2023-02-08T02:39:30.710Z,0.00
2023-02-08T02:42:34.864Z,0.00
2023-02-08T02:45:26.137Z,0.00
2023-02-08T02:48:26.031Z,0.00
2023-02-08T02:50:59.000Z,0.00
2023-02-08T02:53:34.233Z,0.10
2023-02-08T02:56:10.196Z,0.10
2023-02-08T02:58:38.717Z,0.10
2023-02-08T03:01:05.822Z,0.10
2023-02-08T03:03:35.127Z,0.20
2023-02-08T03:06:09.704Z,0.20
2023-02-08T03:08:54.353Z,0.20
2023-02-08T03:11:31.086Z,0.20
2023-02-08T03:14:39.171Z,0.20
2023-02-08T03:17:31.607Z,0.20
2023-02-08T03:20:21.826Z,0.20
2023-02-08T03:23:08.489Z,0.20
2023-02-08T03:25:52.950Z,0.20
2023-02-08T03:28:38.058Z,0.20
2023-02-08T03:31:18.162Z,0.20
2023-02-08T03:33:58.401Z,0.20
2023-02-08T03:36:33.218Z,0.20
2023-02-08T03:39:06.064Z,0.20
2023-02-08T03:41:37.524Z,0.20
2023-02-08T03:44:10.397Z,0.20
2023-02-08T03:46:46.898Z,0.20
2023-02-08T03:49:18.504Z,0.10
2023-02-08T03:51:46.380Z,0.10
2023-02-08T03:54:19.824Z,0.10
2023-02-08T03:56:46.704Z,0.10
2023-02-08T03:59:20.802Z,0.00
2023-02-08T04:02:06.021Z,0.00
2023-02-08T04:04:40.798Z,0.00
2023-02-08T04:07:07.951Z,0.00
2023-02-08T04:09:35.766Z,0.00
2023-02-08T04:12:04.421Z,0.00
2023-02-08T04:14:31.723Z,0.00
2023-02-08T04:16:58.695Z,0.00
2023-02-08T04:19:25.649Z,0.00
2023-02-08T04:21:52.662Z,0.00
2023-02-08T04:24:20.399Z,0.00
2023-02-08T04:26:48.016Z,0.00
2023-02-08T04:29:15.089Z,0.00
2023-02-08T04:31:42.187Z,-0.10
2023-02-08T04:34:09.200Z,0.00
2023-02-08T04:36:36.560Z,0.00
2023-02-08T04:39:03.646Z,0.00
2023-02-08T04:41:30.594Z,-0.10
2023-02-08T04:43:57.614Z,-0.10
2023-02-08T04:46:24.622Z,-0.10
2023-02-08T04:48:51.585Z,-0.10
2023-02-08T04:51:18.609Z,-0.10
2023-02-08T04:53:45.515Z,-0.10
2023-02-08T04:56:12.494Z,-0.10
2023-02-08T04:58:39.403Z,-0.10
2023-02-08T05:01:08.197Z,-0.10
2023-02-08T05:03:35.860Z,-0.20
2023-02-08T05:06:02.953Z,-0.20
2023-02-08T05:08:29.898Z,-0.30
2023-02-08T05:10:56.845Z,-0.30
2023-02-08T05:13:23.805Z,-0.40
2023-02-08T05:15:50.903Z,-0.40
2023-02-08T05:18:17.844Z,-0.40
2023-02-08T05:20:45.327Z,-0.40
2023-02-08T05:23:12.353Z,-0.40
2023-02-08T05:25:39.901Z,-0.40
2023-02-08T05:28:07.000Z,-0.40
2023-02-08T05:30:34.068Z,-0.50
2023-02-08T05:33:01.118Z,-0.50
2023-02-08T05:35:28.079Z,-0.50
2023-02-08T05:37:55.017Z,-0.50
2023-02-08T05:40:22.023Z,-0.50
2023-02-08T05:42:49.024Z,-0.60
2023-02-08T05:45:16.312Z,-0.60
2023-02-08T05:47:43.387Z,-0.60
2023-02-08T05:50:10.565Z,-0.70
2023-02-08T05:52:37.560Z,-0.70
2023-02-08T05:55:04.768Z,-0.70
2023-02-08T05:57:34.220Z,-0.70
2023-02-08T06:00:03.468Z,-0.70
2023-02-08T06:02:30.579Z,-0.70
2023-02-08T06:04:57.574Z,-0.80
2023-02-08T06:07:24.883Z,-0.80
2023-02-08T06:09:51.797Z,-0.80
2023-02-08T06:12:19.080Z,-0.80
2023-02-08T06:14:45.999Z,-0.80
2023-02-08T06:17:12.981Z,-0.80
2023-02-08T06:19:39.996Z,-0.80
2023-02-08T06:22:06.956Z,-0.80
2023-02-08T06:24:33.862Z,-0.80
2023-02-08T06:27:00.768Z,-0.80
2023-02-08T06:29:27.646Z,-0.80
2023-02-08T06:31:54.670Z,-0.80
2023-02-08T06:34:21.745Z,-0.80
2023-02-08T06:36:48.690Z,-0.80
2023-02-08T06:39:15.690Z,-0.80
2023-02-08T06:41:42.921Z,-0.90
2023-02-08T06:44:09.938Z,-0.90
2023-02-08T06:46:36.862Z,-0.90
2023-02-08T06:49:04.051Z,-0.90
2023-02-08T06:51:31.259Z,-0.90
2023-02-08T06:53:58.269Z,-0.90
2023-02-08T06:56:25.568Z,-0.80
2023-02-08T06:58:52.536Z,-0.80
2023-02-08T07:01:19.499Z,-0.80
2023-02-08T07:03:46.497Z,-0.80
2023-02-08T07:06:15.774Z,-0.90
2023-02-08T07:08:42.868Z,-0.80
2023-02-08T07:11:12.531Z,-0.80
2023-02-08T07:13:40.171Z,-0.80
2023-02-08T07:16:09.418Z,-0.80
2023-02-08T07:18:36.858Z,-1.00
2023-02-08T07:21:04.299Z,-1.00
2023-02-08T07:23:31.702Z,-1.00
2023-02-08T07:26:05.132Z,-1.00
2023-02-08T07:28:32.137Z,-1.10
2023-02-08T07:30:59.180Z,-1.10
2023-02-08T07:33:26.313Z,-1.10
2023-02-08T07:35:53.301Z,-1.10
2023-02-08T07:38:20.928Z,-1.00
2023-02-08T07:40:48.208Z,-1.00
2023-02-08T07:43:15.262Z,-0.90
2023-02-08T07:45:42.561Z,-0.90
2023-02-08T07:48:09.546Z,-0.90
2023-02-08T07:50:36.501Z,-0.80
2023-02-08T07:53:03.585Z,-0.70
2023-02-08T07:55:30.587Z,-0.80
2023-02-08T07:57:58.717Z,-0.70
2023-02-08T08:00:27.066Z,-0.70
2023-02-08T08:02:54.472Z,-0.70
2023-02-08T08:05:21.854Z,-0.70
2023-02-08T08:07:48.749Z,-0.70
2023-02-08T08:10:15.749Z,-0.70
2023-02-08T08:12:42.695Z,-0.80
2023-02-08T08:15:10.027Z,-0.70
2023-02-08T08:17:36.994Z,-0.80
2023-02-08T08:20:04.114Z,-0.80
2023-02-08T08:22:31.160Z,-0.70
2023-02-08T08:24:58.862Z,-0.60
2023-02-08T08:27:26.065Z,-0.60
2023-02-08T08:29:53.013Z,-0.60
2023-02-08T08:32:20.219Z,-0.50
2023-02-08T08:34:47.125Z,-0.40
2023-02-08T08:37:14.104Z,-0.40
2023-02-08T08:39:41.094Z,-0.20
2023-02-08T08:42:08.135Z,-0.10
2023-02-08T08:44:35.148Z,-0.10
2023-02-08T08:47:02.546Z,-0.10
2023-02-08T08:49:30.186Z,0.00
2023-02-08T08:51:58.273Z,0.00
2023-02-08T08:54:25.297Z,0.00
2023-02-08T08:56:52.297Z,0.10
2023-02-08T08:59:19.436Z,-0.10
2023-02-08T09:01:46.420Z,0.00
2023-02-08T09:04:13.499Z,0.00
2023-02-08T09:06:40.534Z,0.10
2023-02-08T09:09:08.036Z,-0.10
2023-02-08T09:11:35.038Z,0.00
2023-02-08T09:14:05.523Z,-0.10
2023-02-08T09:16:33.289Z,-0.60
2023-02-08T09:19:08.315Z,-0.40
2023-02-08T09:21:35.822Z,-0.50
2023-02-08T09:24:04.073Z,-0.60
2023-02-08T09:26:31.183Z,-0.50
2023-02-08T09:28:58.213Z,-0.30
2023-02-08T09:31:27.694Z,-0.20
2023-02-08T09:33:56.995Z,0.10
2023-02-08T09:36:28.239Z,0.10
2023-02-08T09:39:00.443Z,0.30
2023-02-08T09:41:59.038Z,0.20
2023-02-08T09:44:31.768Z,0.00
2023-02-08T09:47:30.995Z,-0.10
2023-02-08T09:50:00.880Z,-0.20
2023-02-08T09:52:39.527Z,-0.20
2023-02-08T09:55:40.722Z,-0.20
2023-02-08T09:58:40.790Z,0.00
2023-02-08T10:01:23.905Z,0.20
2023-02-08T10:03:57.093Z,0.40
2023-02-08T10:06:24.444Z,0.20
2023-02-08T10:08:53.048Z,0.30
2023-02-08T10:11:31.899Z,0.20
2023-02-08T10:14:23.793Z,-0.20
2023-02-08T10:17:21.794Z,-0.40
2023-02-08T10:20:01.615Z,-0.70
2023-02-08T10:22:53.828Z,-0.60
2023-02-08T10:25:32.628Z,-0.50
2023-02-08T10:28:49.305Z,-0.30
2023-02-08T10:32:11.504Z,-0.30
2023-02-08T10:34:56.886Z,-0.10
2023-02-08T10:37:39.648Z,0.10
2023-02-08T10:40:24.636Z,0.20
2023-02-08T10:43:19.184Z,0.30
2023-02-08T10:46:28.553Z,0.30
2023-02-08T10:49:21.424Z,0.30
2023-02-08T10:51:48.969Z,0.20
2023-02-08T10:54:17.919Z,0.10
2023-02-08T10:56:51.518Z,0.20
2023-02-08T10:59:27.256Z,0.00
2023-02-08T11:01:56.470Z,0.20
2023-02-08T11:04:23.520Z,0.10
2023-02-08T11:06:51.995Z,0.20
2023-02-08T11:09:31.015Z,0.40
2023-02-08T11:12:02.636Z,0.00
2023-02-08T11:14:47.098Z,0.20
2023-02-08T11:17:23.400Z,0.40
2023-02-08T11:19:51.167Z,0.40
2023-02-08T11:22:24.832Z,0.80
2023-02-08T11:24:57.455Z,0.90
2023-02-08T11:27:33.619Z,0.70
2023-02-08T11:30:24.457Z,0.60
2023-02-08T11:33:14.176Z,0.60
2023-02-08T11:35:42.383Z,0.50
2023-02-08T11:38:19.826Z,0.60
2023-02-08T11:40:46.902Z,0.70
2023-02-08T11:43:27.376Z,1.10
2023-02-08T11:45:57.000Z,1.20
2023-02-08T11:48:34.935Z,1.20
2023-02-08T11:51:03.485Z,1.00
2023-02-08T11:53:36.640Z,1.00
2023-02-08T11:56:23.622Z,1.30
2023-02-08T11:59:17.494Z,1.50
2023-02-08T12:01:44.810Z,1.40
2023-02-08T12:04:14.820Z,1.60
2023-02-08T12:06:47.445Z,1.90
2023-02-08T12:09:31.959Z,1.90
2023-02-08T12:12:33.829Z,2.00
2023-02-08T12:15:24.487Z,1.70
2023-02-08T12:17:54.280Z,1.80
2023-02-08T12:20:42.950Z,1.60
2023-02-08T12:23:37.472Z,1.70
2023-02-08T12:26:23.225Z,1.80
2023-02-08T12:29:11.386Z,1.80
2023-02-08T12:31:38.332Z,1.40
2023-02-08T12:34:08.312Z,1.30
2023-02-08T12:36:48.988Z,1.30
2023-02-08T12:39:57.194Z,1.10
2023-02-08T12:42:46.810Z,1.20
2023-02-08T12:45:33.057Z,1.20
2023-02-08T12:48:11.773Z,1.20
2023-02-08T12:50:47.630Z,1.10
2023-02-08T12:53:33.625Z,1.10
2023-02-08T12:56:07.016Z,1.00
2023-02-08T12:58:47.449Z,1.20
2023-02-08T13:01:26.221Z,1.30
2023-02-08T13:04:10.904Z,1.30
2023-02-08T13:07:00.974Z,1.30
2023-02-08T13:09:35.501Z,1.40
2023-02-08T13:12:06.531Z,1.10
2023-02-08T13:14:58.707Z,1.30
2023-02-08T13:17:37.244Z,0.80
2023-02-08T13:20:33.818Z,0.60
2023-02-08T13:23:06.644Z,0.70
2023-02-08T13:25:36.868Z,1.10
2023-02-08T13:28:06.595Z,1.50
2023-02-08T13:30:39.581Z,1.00
2023-02-08T13:33:22.392Z,1.10
2023-02-08T13:35:51.652Z,1.50
2023-02-08T13:38:31.849Z,1.60
2023-02-08T13:41:17.865Z,1.70
2023-02-08T13:44:04.973Z,1.60
2023-02-08T13:46:47.406Z,1.10
2023-02-08T13:49:52.990Z,1.10
2023-02-08T13:52:48.240Z,0.90
2023-02-08T13:55:34.483Z,0.70
2023-02-08T13:58:14.658Z,0.30
2023-02-08T14:00:53.706Z,0.30
2023-02-08T14:03:28.158Z,0.40
2023-02-08T14:05:59.199Z,0.20
2023-02-08T14:08:31.768Z,0.30
2023-02-08T14:11:33.037Z,0.10
2023-02-08T14:14:06.344Z,0.00
2023-02-08T14:16:41.323Z,0.00
2023-02-08T14:19:20.100Z,-0.10
2023-02-08T14:22:15.924Z,-0.10
2023-02-08T14:25:00.886Z,-0.20
2023-02-08T14:27:35.818Z,-0.30
2023-02-08T14:30:07.610Z,-0.30
2023-02-08T14:32:38.163Z,-0.30
2023-02-08T14:35:09.720Z,-0.30
2023-02-08T14:37:37.850Z,-0.40
2023-02-08T14:40:17.094Z,-0.40
2023-02-08T14:42:54.769Z,-0.40
2023-02-08T14:45:34.239Z,-0.40
2023-02-08T14:48:19.330Z,-0.50
2023-02-08T14:50:55.489Z,-0.50
2023-02-08T14:53:25.733Z,-0.50
2023-02-08T14:55:59.365Z,-0.50
2023-02-08T14:58:57.596Z,-0.60
2023-02-08T15:01:27.545Z,-0.60
2023-02-08T15:04:00.530Z,-0.60
2023-02-08T15:06:50.218Z,-0.70
2023-02-08T15:09:22.665Z,-0.70
2023-02-08T15:12:18.836Z,-0.80
2023-02-08T15:14:46.240Z,-0.80
2023-02-08T15:17:41.220Z,-0.90
2023-02-08T15:20:20.888Z,-0.90
2023-02-08T15:22:48.086Z,-1.00
2023-02-08T15:25:25.781Z,-1.00
2023-02-08T15:27:56.298Z,-1.00
2023-02-08T15:30:36.665Z,-1.00
2023-02-08T15:33:10.445Z,-1.10
2023-02-08T15:35:37.643Z,-1.10
2023-02-08T15:38:05.649Z,-1.20
2023-02-08T15:40:35.034Z,-1.20
2023-02-08T15:43:07.934Z,-1.30
2023-02-08T15:45:35.629Z,-1.30
2023-02-08T15:48:03.565Z,-1.30
2023-02-08T15:50:33.437Z,-1.40
2023-02-08T15:53:06.698Z,-1.40
2023-02-08T15:55:45.335Z,-1.50
2023-02-08T15:58:28.903Z,-1.60
2023-02-08T16:00:59.019Z,-1.70
2023-02-08T16:03:28.214Z,-1.80
2023-02-08T16:06:01.822Z,-1.80
2023-02-08T16:08:35.757Z,-1.80
2023-02-08T16:11:14.070Z,-1.90
2023-02-08T16:13:46.854Z,-1.90
2023-02-08T16:16:16.876Z,-1.90
2023-02-08T16:18:58.657Z,-1.90
2023-02-08T16:21:25.504Z,-1.90
2023-02-08T16:23:56.614Z,-1.80
2023-02-08T16:26:40.805Z,-1.90
2023-02-08T16:29:18.828Z,-1.80
2023-02-08T16:31:48.609Z,-1.80
2023-02-08T16:34:18.446Z,-2.00
2023-02-08T16:36:51.098Z,-2.00
2023-02-08T16:39:22.081Z,-2.10
2023-02-08T16:42:06.476Z,-2.10
2023-02-08T16:45:17.593Z,-2.20
2023-02-08T16:47:56.893Z,-2.10
2023-02-08T16:50:27.920Z,-2.20
2023-02-08T16:52:59.632Z,-2.30
2023-02-08T16:55:29.910Z,-2.30
2023-02-08T16:57:58.744Z,-2.30
2023-02-08T17:00:32.145Z,-2.40
2023-02-08T17:02:59.447Z,-2.50
2023-02-08T17:05:30.131Z,-2.50
2023-02-08T17:07:58.158Z,-2.50
2023-02-08T17:10:31.081Z,-2.40
2023-02-08T17:13:18.821Z,-2.40
2023-02-08T17:15:48.303Z,-2.50
2023-02-08T17:18:15.565Z,-2.40
2023-02-08T17:20:43.239Z,-2.40
2023-02-08T17:23:11.318Z,-2.50
2023-02-08T17:25:38.784Z,-2.50
2023-02-08T17:28:18.484Z,-2.60
2023-02-08T17:30:46.927Z,-2.70
2023-02-08T17:33:20.506Z,-2.60
2023-02-08T17:35:52.576Z,-2.70
2023-02-08T17:38:20.814Z,-2.80
2023-02-08T17:40:48.188Z,-2.70
2023-02-08T17:43:15.370Z,-2.70
2023-02-08T17:45:44.598Z,-2.70
2023-02-08T17:48:15.798Z,-2.70
2023-02-08T17:50:48.008Z,-2.80
2023-02-08T17:53:16.037Z,-2.80
2023-02-08T17:55:44.692Z,-2.70
2023-02-08T17:58:12.532Z,-2.70
2023-02-08T18:00:41.087Z,-2.60
2023-02-08T18:03:08.084Z,-2.70
2023-02-08T18:05:35.267Z,-2.60
2023-02-08T18:08:02.219Z,-2.50
2023-02-08T18:10:29.211Z,-2.40
2023-02-08T18:12:56.203Z,-2.40
2023-02-08T18:15:24.285Z,-2.40
2023-02-08T18:17:51.488Z,-2.40
2023-02-08T18:20:18.917Z,-2.40
2023-02-08T18:22:45.927Z,-2.40
2023-02-08T18:25:13.834Z,-2.40
2023-02-08T18:27:41.141Z,-2.30
2023-02-08T18:30:08.925Z,-2.20
2023-02-08T18:32:36.026Z,-2.10
2023-02-08T18:35:04.260Z,-2.00
2023-02-08T18:37:32.378Z,-2.20
2023-02-08T18:40:00.238Z,-2.10
2023-02-08T18:42:27.718Z,-2.10
2023-02-08T18:44:54.757Z,-2.20
2023-02-08T18:47:21.946Z,-2.30
2023-02-08T18:49:57.607Z,-2.30
2023-02-08T18:52:24.780Z,-2.30
2023-02-08T18:54:52.083Z,-2.30
2023-02-08T18:57:19.730Z,-2.30
2023-02-08T18:59:46.823Z,-2.40
2023-02-08T19:02:20.965Z,-2.40
2023-02-08T19:04:48.300Z,-2.50
2023-02-08T19:07:15.373Z,-2.50
2023-02-08T19:09:43.961Z,-2.50
2023-02-08T19:12:15.412Z,-2.50
2023-02-08T19:14:43.503Z,-2.50
2023-02-08T19:17:12.358Z,-2.40
2023-02-08T19:19:40.748Z,-2.30
2023-02-08T19:22:07.778Z,-2.40
2023-02-08T19:24:34.818Z,-2.40
2023-02-08T19:27:01.829Z,-2.40
2023-02-08T19:29:29.074Z,-2.50
2023-02-08T19:31:58.234Z,-2.50
2023-02-08T19:34:25.616Z,-2.50
2023-02-08T19:36:54.998Z,-2.50
2023-02-08T19:39:27.191Z,-2.40
2023-02-08T19:41:55.362Z,-2.40
2023-02-08T19:44:22.966Z,-2.40
2023-02-08T19:46:55.268Z,-2.30
2023-02-08T19:49:26.256Z,-2.20
2023-02-08T19:51:53.528Z,-2.20
2023-02-08T19:54:20.991Z,-2.20
2023-02-08T19:56:50.463Z,-2.20
2023-02-08T19:59:29.082Z,-2.10
2023-02-08T20:01:56.202Z,-2.10
2023-02-08T20:04:23.857Z,-2.00
2023-02-08T20:06:53.004Z,-2.00
2023-02-08T20:09:20.761Z,-2.00
2023-02-08T20:11:57.938Z,-1.90
2023-02-08T20:14:26.896Z,-1.90
2023-02-08T20:16:54.388Z,-1.80
2023-02-08T20:19:21.619Z,-1.90
2023-02-08T20:21:48.647Z,-1.80
2023-02-08T20:24:16.073Z,-1.90
2023-02-08T20:26:45.291Z,-1.90
2023-02-08T20:29:13.329Z,-1.90
2023-02-08T20:31:42.889Z,-1.80
2023-02-08T20:34:13.218Z,-1.80
2023-02-08T20:36:46.164Z,-1.90
2023-02-08T20:39:18.969Z,-1.90
2023-02-08T20:41:47.560Z,-1.80
2023-02-08T20:44:18.589Z,-1.90
2023-02-08T20:46:46.704Z,-1.90
2023-02-08T20:49:15.415Z,-1.90
2023-02-08T20:51:43.543Z,-1.90
2023-02-08T20:54:10.676Z,-1.90
2023-02-08T20:56:38.772Z,-2.00
2023-02-08T20:59:08.728Z,-2.00
2023-02-08T21:01:36.434Z,-2.00
2023-02-08T21:04:05.212Z,-2.10
2023-02-08T21:06:35.253Z,-2.10
2023-02-08T21:09:08.585Z,-2.20
2023-02-08T21:11:36.119Z,-2.10
2023-02-08T21:14:04.596Z,-2.10
2023-02-08T21:16:32.525Z,-2.10
2023-02-08T21:18:59.979Z,-2.10
2023-02-08T21:21:28.129Z,-2.10
2023-02-08T21:23:56.889Z,-2.10
2023-02-08T21:26:25.222Z,-2.10
2023-02-08T21:28:56.550Z,-2.10
2023-02-08T21:31:25.055Z,-2.00
2023-02-08T21:33:53.160Z,-2.00
2023-02-08T21:36:22.787Z,-2.00
2023-02-08T21:38:49.982Z,-2.00
2023-02-08T21:41:23.151Z,-1.90
2023-02-08T21:43:51.127Z,-2.00
2023-02-08T21:46:18.396Z,-2.00
2023-02-08T21:49:04.332Z,-2.10
2023-02-08T21:51:49.976Z,-2.10
2023-02-08T21:54:38.414Z,-2.00
2023-02-08T21:57:07.104Z,-2.00
2023-02-08T21:59:37.073Z,-2.00
2023-02-08T22:02:06.006Z,-2.10
2023-02-08T22:04:35.198Z,-2.00
2023-02-08T22:07:04.735Z,-2.00
2023-02-08T22:09:31.858Z,-2.00
2023-02-08T22:11:59.207Z,-2.00
2023-02-08T22:14:26.397Z,-2.00
2023-02-08T22:16:53.562Z,-2.10
2023-02-08T22:19:20.552Z,-2.00
2023-02-08T22:21:47.522Z,-2.10
2023-02-08T22:24:14.450Z,-2.10
2023-02-08T22:26:41.454Z,-2.10
2023-02-08T22:29:08.416Z,-2.10
2023-02-08T22:31:35.478Z,-2.10
2023-02-08T22:34:02.562Z,-2.10
2023-02-08T22:36:29.653Z,-2.10
2023-02-08T22:38:56.749Z,-2.10
2023-02-08T22:41:23.749Z,-2.20
2023-02-08T22:43:50.735Z,-2.20
2023-02-08T22:46:17.729Z,-2.10
2023-02-08T22:48:44.789Z,-2.10
2023-02-08T22:51:17.347Z,-2.20
2023-02-08T22:53:45.311Z,-2.20
2023-02-08T22:56:15.090Z,-2.20
2023-02-08T22:58:42.235Z,-2.10
2023-02-08T23:01:17.350Z,-2.00
2023-02-08T23:03:44.910Z,-2.00
2023-02-08T23:06:15.866Z,-2.10
2023-02-08T23:08:43.251Z,-2.00
2023-02-08T23:11:12.520Z,-2.00
2023-02-08T23:13:39.523Z,-1.90
2023-02-08T23:16:06.766Z,-1.90
2023-02-08T23:18:36.162Z,-2.00
2023-02-08T23:21:12.912Z,-1.90
2023-02-08T23:23:40.533Z,-1.90
2023-02-08T23:26:10.143Z,-2.00
2023-02-08T23:28:37.595Z,-1.90
2023-02-08T23:31:09.152Z,-1.90
2023-02-08T23:33:37.407Z,-1.90
2023-02-08T23:36:30.904Z,-1.90
2023-02-08T23:38:57.940Z,-1.80
2023-02-08T23:41:25.046Z,-1.90
2023-02-08T23:43:53.236Z,-1.90
2023-02-08T23:46:23.982Z,-1.90
2023-02-08T23:48:51.840Z,-1.80
2023-02-08T23:51:20.383Z,-1.90
2023-02-08T23:53:47.578Z,-1.80
2023-02-08T23:56:26.406Z,-1.80
2023-02-08T23:58:56.441Z,-1.80
